createdAt,value
2022-11-18T00:02:06.144Z,3.67
2022-11-18T00:04:32.867Z,3.20
2022-11-18T00:06:59.615Z,3.58
2022-11-18T00:09:26.292Z,4.38
2022-11-18T00:12:11.713Z,3.33
2022-11-18T00:14:38.314Z,2.63
2022-11-18T00:17:06.546Z,2.30
2022-11-18T00:19:38.559Z,2.28
2022-11-18T00:24:34.309Z,3.38
2022-11-18T00:27:00.981Z,2.63
2022-11-18T00:29:28.375Z,2.63
2022-11-18T00:31:56.106Z,3.92
2022-11-18T00:34:22.850Z,4.50
2022-11-18T00:36:49.777Z,5.60
2022-11-18T00:39:20.729Z,5.95
2022-11-18T00:42:06.664Z,3.50
2022-11-18T00:44:33.351Z,2.67
2022-11-18T00:47:00.110Z,5.07
2022-11-18T00:49:26.770Z,5.82
2022-11-18T00:51:53.533Z,6.15
2022-11-18T00:54:20.255Z,9.30
2022-11-18T00:56:46.950Z,10.20
2022-11-18T00:59:13.584Z,8.82
2022-11-18T01:01:40.286Z,6.85
2022-11-18T01:04:07.021Z,3.65
2022-11-18T01:06:33.697Z,3.05
2022-11-18T01:09:00.408Z,2.95
2022-11-18T01:11:45.658Z,2.70
2022-11-18T01:14:12.300Z,2.60
2022-11-18T01:16:38.969Z,3.08
2022-11-18T01:19:05.594Z,2.80
2022-11-18T01:21:32.236Z,3.35
2022-11-18T01:23:58.845Z,4.95
2022-11-18T01:26:25.547Z,6.63
2022-11-18T01:28:57.455Z,6.07
2022-11-18T01:31:24.308Z,4.35
2022-11-18T01:33:50.959Z,5.15
2022-11-18T01:36:28.032Z,5.90
2022-11-18T01:38:55.446Z,6.57
2022-11-18T01:41:24.757Z,6.15
2022-11-18T01:43:53.354Z,6.40
2022-11-18T01:46:21.469Z,4.20
2022-11-18T01:48:55.593Z,3.67
2022-11-18T01:51:29.342Z,4.03
2022-11-18T01:54:21.696Z,4.88
2022-11-18T01:59:22.352Z,6.72
2022-11-18T02:01:49.232Z,7.68
2022-11-18T02:04:16.678Z,8.40
2022-11-18T02:06:45.589Z,7.72
2022-11-18T02:09:15.073Z,7.25
2022-11-18T02:11:51.747Z,8.70
2022-11-18T02:14:27.054Z,9.80
2022-11-18T02:17:11.902Z,10.00
2022-11-18T02:20:09.019Z,9.48
2022-11-18T02:23:23.306Z,6.10
2022-11-18T02:26:23.520Z,3.03
2022-11-18T02:29:10.444Z,2.85
2022-11-18T02:31:49.639Z,3.05
2022-11-18T02:34:31.216Z,2.67
2022-11-18T02:37:19.810Z,3.67
2022-11-18T02:40:00.397Z,6.70
2022-11-18T02:42:31.097Z,6.72
2022-11-18T02:45:04.413Z,5.68
2022-11-18T02:47:33.220Z,6.30
2022-11-18T02:50:05.977Z,4.20
2022-11-18T02:52:35.802Z,4.10
2022-11-18T02:55:05.796Z,2.80
2022-11-18T02:57:34.175Z,2.95
2022-11-18T03:00:00.795Z,2.63
2022-11-18T03:02:27.622Z,2.47
2022-11-18T03:04:57.899Z,2.70
2022-11-18T03:07:27.786Z,3.30
2022-11-18T03:09:56.584Z,2.50
2022-11-18T03:12:38.528Z,2.88
2022-11-18T03:15:23.274Z,4.22
2022-11-18T03:18:13.278Z,3.53
2022-11-18T03:20:53.101Z,4.97
2022-11-18T03:23:26.979Z,3.80
2022-11-18T03:26:02.972Z,3.22
2022-11-18T03:28:45.951Z,3.97
2022-11-18T03:31:20.782Z,4.60
2022-11-18T03:33:56.671Z,3.65
2022-11-18T03:36:27.139Z,2.63
2022-11-18T03:38:59.327Z,2.65
2022-11-18T03:41:28.480Z,2.88
2022-11-18T03:44:04.328Z,2.50
2022-11-18T03:46:50.078Z,2.20
2022-11-18T03:49:27.628Z,2.70
2022-11-18T03:51:59.976Z,5.40
2022-11-18T03:54:33.226Z,5.80
2022-11-18T03:57:09.436Z,6.07
2022-11-18T03:59:43.510Z,5.25
2022-11-18T04:02:21.514Z,4.70
2022-11-18T04:04:50.909Z,3.95
2022-11-18T04:07:35.876Z,3.78
2022-11-18T04:10:10.507Z,3.00
2022-11-18T04:12:43.512Z,4.97
2022-11-18T04:15:12.226Z,4.55
2022-11-18T04:17:42.481Z,3.88
2022-11-18T04:20:28.368Z,4.07
2022-11-18T04:22:55.261Z,3.45
2022-11-18T04:25:22.028Z,2.65
2022-11-18T04:27:48.663Z,2.95
2022-11-18T04:30:15.275Z,4.68
2022-11-18T04:32:42.075Z,3.65
2022-11-18T04:35:09.150Z,2.28
2022-11-18T04:37:35.860Z,2.33
2022-11-18T04:40:03.302Z,2.38
2022-11-18T04:42:30.067Z,3.17
2022-11-18T04:44:58.741Z,2.67
2022-11-18T04:47:25.416Z,2.15
2022-11-18T04:49:52.058Z,2.20
2022-11-18T04:52:18.972Z,2.85
2022-11-18T04:54:45.836Z,2.58
2022-11-18T04:57:12.729Z,2.10
2022-11-18T04:59:39.936Z,2.47
2022-11-18T05:02:06.612Z,2.90
2022-11-18T05:04:34.699Z,2.20
2022-11-18T05:07:03.397Z,2.72
2022-11-18T05:09:32.086Z,2.08
2022-11-18T05:12:18.129Z,2.20
2022-11-18T05:14:49.705Z,3.65
2022-11-18T05:17:18.440Z,4.25
2022-11-18T05:19:45.078Z,3.85
2022-11-18T05:22:11.720Z,3.50
2022-11-18T05:24:38.377Z,3.35
2022-11-18T05:27:04.990Z,2.45
2022-11-18T05:29:31.734Z,2.90
2022-11-18T05:31:58.467Z,2.40
2022-11-18T05:34:25.310Z,1.80
2022-11-18T05:36:52.034Z,3.60
2022-11-18T05:39:19.034Z,3.00
2022-11-18T05:42:04.616Z,2.30
2022-11-18T05:44:31.304Z,2.30
2022-11-18T05:46:58.094Z,2.78
2022-11-18T05:49:24.751Z,4.38
2022-11-18T05:51:51.440Z,3.28
2022-11-18T05:54:19.937Z,2.95
2022-11-18T05:56:46.645Z,2.50
2022-11-18T05:59:14.034Z,2.95
2022-11-18T06:01:50.033Z,2.35
2022-11-18T06:04:44.468Z,2.35
2022-11-18T06:07:20.391Z,2.35
2022-11-18T06:09:50.845Z,4.43
2022-11-18T06:12:21.508Z,4.57
2022-11-18T06:15:00.989Z,4.40
2022-11-18T06:17:34.001Z,2.80
2022-11-18T06:20:04.347Z,3.70
2022-11-18T06:22:31.465Z,4.07
2022-11-18T06:24:58.372Z,4.20
2022-11-18T06:27:25.072Z,3.58
2022-11-18T06:29:51.733Z,3.28
2022-11-18T06:32:18.398Z,5.35
2022-11-18T06:34:45.009Z,4.10
2022-11-18T06:37:20.508Z,4.32
2022-11-18T06:39:47.421Z,4.03
2022-11-18T06:42:32.966Z,2.35
2022-11-18T06:44:59.714Z,3.50
2022-11-18T06:47:26.460Z,2.50
2022-11-18T06:49:53.202Z,2.30
2022-11-18T06:52:19.961Z,2.40
2022-11-18T06:54:46.579Z,2.00
2022-11-18T06:57:13.229Z,2.42
2022-11-18T06:59:39.861Z,3.83
2022-11-18T07:02:06.672Z,4.15
2022-11-18T07:04:34.711Z,4.65
2022-11-18T07:07:01.457Z,4.45
2022-11-18T07:09:28.110Z,2.92
2022-11-18T07:11:54.730Z,6.70
2022-11-18T07:14:21.401Z,4.82
2022-11-18T07:16:48.052Z,4.70
2022-11-18T07:19:14.946Z,5.40
2022-11-18T07:21:42.599Z,5.00
2022-11-18T07:24:13.497Z,5.57
2022-11-18T07:26:40.213Z,5.63
2022-11-18T07:29:07.179Z,3.38
2022-11-18T07:31:35.251Z,5.05
2022-11-18T07:34:02.986Z,3.05
2022-11-18T07:36:35.343Z,4.40
2022-11-18T07:39:04.506Z,4.72
2022-11-18T07:41:31.316Z,4.47
2022-11-18T07:44:01.024Z,4.50
2022-11-18T07:46:33.336Z,3.65
2022-11-18T07:51:30.881Z,2.38
2022-11-18T07:53:57.546Z,3.15
2022-11-18T07:56:24.200Z,2.92
2022-11-18T07:58:55.488Z,3.75
2022-11-18T08:01:24.863Z,3.38
2022-11-18T08:03:51.657Z,3.58
2022-11-18T08:06:19.652Z,5.38
2022-11-18T08:08:47.214Z,6.40
2022-11-18T08:11:21.994Z,5.93
2022-11-18T08:13:49.979Z,5.07
2022-11-18T08:16:19.008Z,5.30
2022-11-18T08:18:46.127Z,5.28
2022-11-18T08:21:14.108Z,8.52
2022-11-18T08:23:42.474Z,8.23
2022-11-18T08:26:13.218Z,8.13
2022-11-18T08:28:41.347Z,8.02
2022-11-18T08:31:12.080Z,7.10
2022-11-18T08:33:39.411Z,7.38
2022-11-18T08:36:12.531Z,7.72
2022-11-18T08:38:39.197Z,7.97
2022-11-18T08:41:07.272Z,8.30
2022-11-18T08:43:36.270Z,9.00
2022-11-18T08:46:02.974Z,5.90
2022-11-18T08:48:29.636Z,6.68
2022-11-18T08:50:58.343Z,4.18
2022-11-18T08:53:25.081Z,3.95
2022-11-18T08:55:59.254Z,4.15
2022-11-18T08:58:27.188Z,5.85
2022-11-18T09:00:56.263Z,6.75
2022-11-18T09:03:23.696Z,4.82
2022-11-18T09:05:50.444Z,4.78
2022-11-18T09:08:17.209Z,4.05
2022-11-18T09:10:43.889Z,3.90
2022-11-18T09:13:42.550Z,3.80
2022-11-18T09:16:01.308Z,4.68
2022-11-18T09:18:28.142Z,5.28
2022-11-18T09:20:59.807Z,4.43
2022-11-18T09:23:26.538Z,5.13
2022-11-18T09:26:00.716Z,6.40
2022-11-18T09:28:28.266Z,8.73
2022-11-18T09:30:55.339Z,7.13
2022-11-18T09:33:22.815Z,5.82
2022-11-18T09:35:49.767Z,5.28
2022-11-18T09:38:16.458Z,5.03
2022-11-18T09:40:56.116Z,4.63
2022-11-18T09:43:41.676Z,4.57
2022-11-18T09:46:31.120Z,3.47
2022-11-18T09:49:13.139Z,3.88
2022-11-18T09:51:48.909Z,3.90
2022-11-18T09:54:24.850Z,3.47
2022-11-18T09:56:53.824Z,2.75
2022-11-18T09:59:25.665Z,3.00
2022-11-18T10:01:54.683Z,3.03
2022-11-18T10:04:22.238Z,3.80
2022-11-18T10:06:50.315Z,3.25
2022-11-18T10:09:37.848Z,3.25
2022-11-18T10:12:19.166Z,2.83
2022-11-18T10:15:08.617Z,4.40
2022-11-18T10:18:44.970Z,3.83
2022-11-18T10:21:43.707Z,3.50
2022-11-18T10:24:30.226Z,3.70
2022-11-18T10:26:59.682Z,5.05
2022-11-18T10:29:27.139Z,7.10
2022-11-18T10:32:15.094Z,8.35
2022-11-18T10:34:54.999Z,8.25
2022-11-18T10:37:38.665Z,5.43
2022-11-18T10:40:26.139Z,4.85
2022-11-18T10:42:52.914Z,4.15
2022-11-18T10:45:22.606Z,3.72
2022-11-18T10:47:59.303Z,3.58
2022-11-18T10:50:55.095Z,3.63
2022-11-18T10:53:28.218Z,2.75
2022-11-18T10:56:05.887Z,3.97
2022-11-18T10:58:37.514Z,3.40
2022-11-18T11:01:25.077Z,3.42
2022-11-18T11:04:22.373Z,4.00
2022-11-18T11:06:49.171Z,3.35
2022-11-18T11:09:15.819Z,3.45
2022-11-18T11:12:00.137Z,3.70
2022-11-18T11:14:44.689Z,2.80
2022-11-18T11:17:20.641Z,2.78
2022-11-18T11:19:52.418Z,2.75
2022-11-18T11:22:19.880Z,2.85
2022-11-18T11:24:47.076Z,2.55
2022-11-18T11:30:22.958Z,2.80
2022-11-18T11:33:19.987Z,3.50
2022-11-18T11:36:11.400Z,2.83
2022-11-18T11:38:58.633Z,2.90
2022-11-18T11:41:37.875Z,3.58
2022-11-18T11:44:26.846Z,2.60
2022-11-18T11:47:22.389Z,3.50
2022-11-18T11:49:56.454Z,4.28
2022-11-18T11:52:45.322Z,4.40
2022-11-18T11:55:37.356Z,4.22
2022-11-18T11:58:32.910Z,3.33
2022-11-18T12:01:20.645Z,3.00
2022-11-18T12:04:07.537Z,3.72
2022-11-18T12:06:34.401Z,3.33
2022-11-18T12:09:31.590Z,2.50
2022-11-18T12:12:01.265Z,3.00
2022-11-18T12:14:47.927Z,2.90
2022-11-18T12:17:32.104Z,2.58
2022-11-18T12:20:40.591Z,2.10
2022-11-18T12:23:23.628Z,1.80
2022-11-18T12:25:50.243Z,2.33
2022-11-18T12:28:41.207Z,2.97
2022-11-18T12:31:20.495Z,2.15
2022-11-18T12:33:59.688Z,2.88
2022-11-18T12:36:29.247Z,2.25
2022-11-18T12:38:57.070Z,3.75
2022-11-18T12:42:00.699Z,2.90
2022-11-18T12:44:29.517Z,4.18
2022-11-18T12:47:07.700Z,3.78
2022-11-18T12:49:34.290Z,4.93
2022-11-18T12:52:03.373Z,4.30
2022-11-18T12:55:04.389Z,5.05
2022-11-18T12:57:33.946Z,5.65
2022-11-18T13:00:52.445Z,5.15
2022-11-18T13:03:28.974Z,5.25
2022-11-18T13:06:12.015Z,4.13
2022-11-18T13:08:40.582Z,4.35
2022-11-18T13:11:36.198Z,4.57
2022-11-18T13:14:24.459Z,4.53
2022-11-18T13:17:10.183Z,5.00
2022-11-18T13:19:36.911Z,4.57
2022-11-18T13:22:22.590Z,4.80
2022-11-18T13:24:51.756Z,4.18
2022-11-18T13:27:27.164Z,4.97
2022-11-18T13:30:09.875Z,4.22
2022-11-18T13:32:36.701Z,3.70
2022-11-18T13:35:17.491Z,3.17
2022-11-18T13:37:53.583Z,3.92
2022-11-18T13:40:29.379Z,3.35
2022-11-18T13:42:56.695Z,22.23
2022-11-18T13:45:28.317Z,23.83
2022-11-18T13:48:09.921Z,15.10
2022-11-18T13:50:42.911Z,11.15
2022-11-18T13:53:21.477Z,8.77
2022-11-18T13:56:03.529Z,7.47
2022-11-18T13:59:10.514Z,13.05
2022-11-18T14:01:31.088Z,9.82
2022-11-18T14:04:20.532Z,7.35
2022-11-18T14:06:47.325Z,5.50
2022-11-18T14:09:13.923Z,4.50
2022-11-18T14:11:44.312Z,5.00
2022-11-18T14:14:14.159Z,6.00
2022-11-18T14:16:43.925Z,7.78
2022-11-18T14:19:30.484Z,23.15
2022-11-18T14:22:07.412Z,11.30
2022-11-18T14:24:36.848Z,8.32
2022-11-18T14:27:36.422Z,7.15
2022-11-18T14:30:24.390Z,5.13
2022-11-18T14:33:06.098Z,4.40
2022-11-18T14:35:35.151Z,5.10
2022-11-18T14:38:35.448Z,5.57
2022-11-18T14:41:00.016Z,4.82
2022-11-18T14:43:26.967Z,5.10
2022-11-18T14:45:57.987Z,4.78
2022-11-18T14:48:32.131Z,4.97
2022-11-18T14:51:00.367Z,5.82
2022-11-18T14:53:27.217Z,4.88
2022-11-18T14:55:58.251Z,5.28
2022-11-18T14:58:24.899Z,4.80
2022-11-18T15:00:51.664Z,4.57
2022-11-18T15:03:18.576Z,4.57
2022-11-18T15:05:45.346Z,6.78
2022-11-18T15:08:12.099Z,5.03
2022-11-18T15:10:38.919Z,5.28
2022-11-18T15:13:05.650Z,5.82
2022-11-18T15:15:32.371Z,4.70
2022-11-18T15:17:59.062Z,3.72
2022-11-18T15:20:25.801Z,4.03
2022-11-18T15:22:52.449Z,3.67
2022-11-18T15:25:19.169Z,3.95
2022-11-18T15:27:45.806Z,4.07
2022-11-18T15:30:15.522Z,5.20
2022-11-18T15:32:42.867Z,5.88
2022-11-18T15:35:12.062Z,6.30
2022-11-18T15:37:39.376Z,6.45
2022-11-18T15:40:06.465Z,6.90
2022-11-18T15:42:36.502Z,9.75
2022-11-18T15:45:09.456Z,9.32
2022-11-18T15:47:36.117Z,6.13
2022-11-18T15:50:03.370Z,4.55
2022-11-18T15:52:30.000Z,3.60
2022-11-18T15:54:56.647Z,3.53
2022-11-18T15:57:23.343Z,5.30
2022-11-18T15:59:50.055Z,3.95
2022-11-18T16:02:16.761Z,3.80
2022-11-18T16:04:46.396Z,3.22
2022-11-18T16:07:13.166Z,3.50
2022-11-18T16:09:58.708Z,3.85
2022-11-18T16:12:44.121Z,9.27
2022-11-18T16:15:29.328Z,12.82
2022-11-18T16:17:56.354Z,14.65
2022-11-18T16:20:23.070Z,14.25
2022-11-18T16:22:49.811Z,11.30
2022-11-18T16:25:16.568Z,8.35
2022-11-18T16:27:43.571Z,6.95
2022-11-18T16:30:30.656Z,20.00
2022-11-18T16:32:57.404Z,10.48
2022-11-18T16:35:24.264Z,6.43
2022-11-18T16:37:50.966Z,6.13
2022-11-18T16:40:18.486Z,5.72
2022-11-18T16:42:49.036Z,5.22
2022-11-18T16:45:16.255Z,5.68
2022-11-18T16:47:43.466Z,5.22
2022-11-18T16:50:10.770Z,5.93
2022-11-18T16:52:37.551Z,9.23
2022-11-18T16:55:04.858Z,7.05
2022-11-18T16:57:31.491Z,6.28
2022-11-18T16:59:58.175Z,8.95
2022-11-18T17:02:24.979Z,6.60
2022-11-18T17:04:51.727Z,7.03
2022-11-18T17:07:18.509Z,6.53
2022-11-18T17:09:45.330Z,7.65
2022-11-18T17:12:12.062Z,10.07
2022-11-18T17:14:40.152Z,14.90
2022-11-18T17:17:07.713Z,12.63
2022-11-18T17:19:34.520Z,10.57
2022-11-18T17:22:01.190Z,7.07
2022-11-18T17:24:27.857Z,6.43
2022-11-18T17:26:55.304Z,6.47
2022-11-18T17:29:24.372Z,10.55
2022-11-18T17:31:51.167Z,15.50
2022-11-18T17:34:18.410Z,14.57
2022-11-18T17:36:45.856Z,9.80
2022-11-18T17:39:13.362Z,7.65
2022-11-18T17:41:59.182Z,6.60
2022-11-18T17:44:28.345Z,13.50
2022-11-18T17:46:55.219Z,9.15
2022-11-18T17:49:22.345Z,7.60
2022-11-18T17:51:51.206Z,8.80
2022-11-18T17:54:18.767Z,8.52
2022-11-18T17:56:47.047Z,10.68
2022-11-18T17:59:15.655Z,10.68
2022-11-18T18:01:42.440Z,8.52
2022-11-18T18:04:09.191Z,8.38
2022-11-18T18:06:35.896Z,8.93
2022-11-18T18:09:03.473Z,7.80
2022-11-18T18:11:30.198Z,7.88
2022-11-18T18:14:15.002Z,14.25
2022-11-18T18:16:45.716Z,15.88
2022-11-18T18:19:15.367Z,25.05
2022-11-18T18:21:42.234Z,21.02
2022-11-18T18:24:09.773Z,18.38
2022-11-18T18:26:36.723Z,13.95
2022-11-18T18:29:03.963Z,10.25
2022-11-18T18:31:34.244Z,18.20
2022-11-18T18:34:02.909Z,21.80
2022-11-18T18:36:30.094Z,15.10
2022-11-18T18:39:01.445Z,12.38
2022-11-18T18:41:28.215Z,9.98
2022-11-18T18:43:54.993Z,9.65
2022-11-18T18:46:31.840Z,9.52
2022-11-18T18:49:02.703Z,10.98
2022-11-18T18:51:40.355Z,13.35
2022-11-18T18:54:09.892Z,19.20
2022-11-18T18:56:38.588Z,15.70
2022-11-18T18:59:05.532Z,15.98
2022-11-18T19:01:33.509Z,18.42
2022-11-18T19:04:02.597Z,15.27
2022-11-18T19:09:26.457Z,12.52
2022-11-18T19:12:12.975Z,11.25
2022-11-18T19:14:39.849Z,23.25
2022-11-18T19:17:11.325Z,19.60
2022-11-18T19:19:59.152Z,15.32
2022-11-18T19:22:26.288Z,20.45
2022-11-18T19:24:53.811Z,22.77
2022-11-18T19:27:21.016Z,22.90
2022-11-18T19:29:47.943Z,39.30
2022-11-18T19:32:14.895Z,32.55
2022-11-18T19:34:41.806Z,26.60
2022-11-18T19:37:09.864Z,18.98
2022-11-18T19:39:38.195Z,21.35
2022-11-18T19:42:05.070Z,29.30
2022-11-18T19:44:31.791Z,25.52
2022-11-18T19:46:59.137Z,20.98
2022-11-18T19:49:25.791Z,19.48
2022-11-18T19:51:52.408Z,14.95
2022-11-18T19:54:19.132Z,13.40
2022-11-18T19:56:45.851Z,12.57
2022-11-18T19:59:13.261Z,11.65
2022-11-18T20:01:40.587Z,12.55
2022-11-18T20:04:07.578Z,12.30
2022-11-18T20:06:36.115Z,12.80
2022-11-18T20:09:06.205Z,11.48
2022-11-18T20:11:32.906Z,14.20
2022-11-18T20:13:59.826Z,12.63
2022-11-18T20:16:26.539Z,13.80
2022-11-18T20:18:55.964Z,14.05
2022-11-18T20:21:23.426Z,14.40
2022-11-18T20:23:54.300Z,13.80
2022-11-18T20:26:22.723Z,11.00
2022-11-18T20:28:55.887Z,12.30
2022-11-18T20:31:24.521Z,10.27
2022-11-18T20:33:52.604Z,10.90
2022-11-18T20:36:20.429Z,10.68
2022-11-18T20:38:55.019Z,11.57
2022-11-18T20:41:23.029Z,10.98
2022-11-18T20:43:49.791Z,10.20
2022-11-18T20:46:20.839Z,10.07
2022-11-18T20:48:48.627Z,10.05
2022-11-18T20:51:18.749Z,10.38
2022-11-18T20:53:45.544Z,9.60
2022-11-18T20:56:17.149Z,9.88
2022-11-18T20:58:44.608Z,8.82
2022-11-18T21:01:18.715Z,8.63
2022-11-18T21:03:52.619Z,9.13
2022-11-18T21:06:20.114Z,8.23
2022-11-18T21:08:46.863Z,9.00
2022-11-18T21:11:14.351Z,8.32
2022-11-18T21:14:00.677Z,8.35
2022-11-18T21:16:28.014Z,9.43
2022-11-18T21:18:54.952Z,9.18
2022-11-18T21:21:40.781Z,8.15
2022-11-18T21:24:08.265Z,8.43
2022-11-18T21:26:36.057Z,7.95
2022-11-18T21:29:05.168Z,7.40
2022-11-18T21:31:33.052Z,9.07
2022-11-18T21:34:00.127Z,9.43
2022-11-18T21:36:28.124Z,8.48
2022-11-18T21:38:56.266Z,7.97
2022-11-18T21:41:22.956Z,8.52
2022-11-18T21:44:05.140Z,9.10
2022-11-18T21:46:34.246Z,8.07
2022-11-18T21:49:03.502Z,8.93
2022-11-18T21:51:33.637Z,9.75
2022-11-18T21:54:01.009Z,9.68
2022-11-18T21:56:30.643Z,8.38
2022-11-18T21:58:59.117Z,8.48
2022-11-18T22:01:28.145Z,8.30
2022-11-18T22:04:04.252Z,9.05
2022-11-18T22:06:33.304Z,7.82
2022-11-18T22:09:01.191Z,8.88
2022-11-18T22:11:28.369Z,8.27
2022-11-18T22:13:55.591Z,7.90
2022-11-18T22:16:24.587Z,8.88
2022-11-18T22:18:58.202Z,7.82
2022-11-18T22:21:28.045Z,7.95
2022-11-18T22:23:59.815Z,6.38
2022-11-18T22:26:27.050Z,6.93
2022-11-18T22:28:55.464Z,7.13
2022-11-18T22:31:23.762Z,6.95
2022-11-18T22:33:51.600Z,6.75
2022-11-18T22:36:20.662Z,6.45
2022-11-18T22:38:47.423Z,11.80
2022-11-18T22:41:41.076Z,11.70
2022-11-18T22:44:09.329Z,8.35
2022-11-18T22:46:37.280Z,6.63
2022-11-18T22:49:05.207Z,6.35
2022-11-18T22:51:32.527Z,6.50
2022-11-18T22:54:30.856Z,6.07
2022-11-18T22:56:46.316Z,5.68
2022-11-18T22:59:13.282Z,5.60
2022-11-18T23:01:40.480Z,5.72
2022-11-18T23:04:07.259Z,5.82
2022-11-18T23:06:33.986Z,4.80
2022-11-18T23:09:00.637Z,4.90
2022-11-18T23:11:45.845Z,4.90
2022-11-18T23:14:12.586Z,4.00
2022-11-18T23:16:41.929Z,3.55
2022-11-18T23:19:17.591Z,3.53
2022-11-18T23:21:45.313Z,3.80
2022-11-18T23:24:14.377Z,3.03
2022-11-18T23:26:41.458Z,3.17
2022-11-18T23:29:08.229Z,1.90
2022-11-18T23:31:34.887Z,1.70
2022-11-18T23:34:02.576Z,2.88
2022-11-18T23:36:29.496Z,2.35
2022-11-18T23:38:56.207Z,1.75
2022-11-18T23:41:23.056Z,2.00
2022-11-18T23:43:51.938Z,1.90
2022-11-18T23:46:19.507Z,2.08
2022-11-18T23:48:47.417Z,1.98
2022-11-18T23:51:20.389Z,1.75
2022-11-18T23:53:51.682Z,1.58
2022-11-18T23:56:20.203Z,1.13
2022-11-18T23:58:49.940Z,1.40
